sensor_id;sensor_type;location;lat;lon;timestamp;pressure;altitude;pressure_sealevel;temperature;humidity
84511;BME280;74730;43.858;18.424;2024-01-30T00:01:41;97378.88;;;-1.62;69.79
84511;BME280;74730;43.858;18.424;2024-01-30T00:04:06;97379.03;;;-1.65;69.68
84511;BME280;74730;43.858;18.424;2024-01-30T00:06:32;97381.63;;;-1.67;69.64
84511;BME280;74730;43.858;18.424;2024-01-30T00:08:58;97391.09;;;-1.70;69.72
84511;BME280;74730;43.858;18.424;2024-01-30T00:11:23;97391.81;;;-1.68;69.58
84511;BME280;74730;43.858;18.424;2024-01-30T00:13:51;97392.03;;;-1.73;70.17
84511;BME280;74730;43.858;18.424;2024-01-30T00:16:24;97391.13;;;-1.72;69.56
84511;BME280;74730;43.858;18.424;2024-01-30T00:18:53;97397.97;;;-1.74;69.47
84511;BME280;74730;43.858;18.424;2024-01-30T00:21:20;97393.25;;;-1.82;69.45
84511;BME280;74730;43.858;18.424;2024-01-30T00:23:46;97395.94;;;-1.85;69.67
84511;BME280;74730;43.858;18.424;2024-01-30T00:26:12;97392.59;;;-1.85;69.92
84511;BME280;74730;43.858;18.424;2024-01-30T00:28:38;97399.50;;;-1.89;69.90
84511;BME280;74730;43.858;18.424;2024-01-30T00:31:04;97396.16;;;-1.89;69.54
84511;BME280;74730;43.858;18.424;2024-01-30T00:33:29;97398.72;;;-1.91;70.03
84511;BME280;74730;43.858;18.424;2024-01-30T00:35:55;97403.84;;;-1.92;70.04
84511;BME280;74730;43.858;18.424;2024-01-30T00:38:21;97407.31;;;-1.93;70.04
84511;BME280;74730;43.858;18.424;2024-01-30T00:40:46;97403.78;;;-1.91;70.01
84511;BME280;74730;43.858;18.424;2024-01-30T00:43:12;97400.53;;;-1.93;69.90
84511;BME280;74730;43.858;18.424;2024-01-30T00:45:37;97403.78;;;-1.91;69.95
84511;BME280;74730;43.858;18.424;2024-01-30T00:48:03;97404.00;;;-1.95;69.84
84511;BME280;74730;43.858;18.424;2024-01-30T00:50:29;97408.31;;;-1.97;69.87
84511;BME280;74730;43.858;18.424;2024-01-30T00:52:55;97410.16;;;-2.01;69.67
84511;BME280;74730;43.858;18.424;2024-01-30T00:55:20;97410.34;;;-2.05;69.74
84511;BME280;74730;43.858;18.424;2024-01-30T00:57:46;97407.13;;;-2.09;69.60
84511;BME280;74730;43.858;18.424;2024-01-30T01:00:13;97408.22;;;-2.14;69.32
84511;BME280;74730;43.858;18.424;2024-01-30T01:02:42;97397.53;;;-2.21;69.65
84511;BME280;74730;43.858;18.424;2024-01-30T01:05:08;97403.63;;;-2.25;69.78
84511;BME280;74730;43.858;18.424;2024-01-30T01:07:33;97402.09;;;-2.29;69.79
84511;BME280;74730;43.858;18.424;2024-01-30T01:09:59;97399.75;;;-2.34;69.88
84511;BME280;74730;43.858;18.424;2024-01-30T01:12:24;97402.47;;;-2.38;70.50
84511;BME280;74730;43.858;18.424;2024-01-30T01:14:50;97403.44;;;-2.41;70.79
84511;BME280;74730;43.858;18.424;2024-01-30T01:17:15;97407.72;;;-2.43;70.46
84511;BME280;74730;43.858;18.424;2024-01-30T01:19:41;97406.28;;;-2.48;70.49
84511;BME280;74730;43.858;18.424;2024-01-30T01:22:07;97404.66;;;-2.49;70.51
84511;BME280;74730;43.858;18.424;2024-01-30T01:24:32;97388.78;;;-2.53;70.66
84511;BME280;74730;43.858;18.424;2024-01-30T01:26:58;97385.34;;;-2.52;70.51
84511;BME280;74730;43.858;18.424;2024-01-30T01:29:24;97387.13;;;-2.54;70.47
84511;BME280;74730;43.858;18.424;2024-01-30T01:31:54;97395.59;;;-2.55;70.52
84511;BME280;74730;43.858;18.424;2024-01-30T01:34:21;97395.72;;;-2.58;70.45
84511;BME280;74730;43.858;18.424;2024-01-30T01:36:47;97399.84;;;-2.55;70.07
84511;BME280;74730;43.858;18.424;2024-01-30T01:39:12;97396.56;;;-2.57;70.18
84511;BME280;74730;43.858;18.424;2024-01-30T01:41:38;97401.81;;;-2.62;70.02
84511;BME280;74730;43.858;18.424;2024-01-30T01:44:04;97388.44;;;-2.65;70.05
84511;BME280;74730;43.858;18.424;2024-01-30T01:46:33;97390.28;;;-2.69;70.47
84511;BME280;74730;43.858;18.424;2024-01-30T01:49:00;97391.28;;;-2.73;70.88
84511;BME280;74730;43.858;18.424;2024-01-30T01:51:27;97393.88;;;-2.75;70.92
84511;BME280;74730;43.858;18.424;2024-01-30T01:53:57;97391.28;;;-2.73;71.49
84511;BME280;74730;43.858;18.424;2024-01-30T01:56:23;97392.13;;;-2.73;71.34
84511;BME280;74730;43.858;18.424;2024-01-30T01:58:49;97386.09;;;-2.70;71.42
84511;BME280;74730;43.858;18.424;2024-01-30T02:01:19;97392.94;;;-2.72;71.11
84511;BME280;74730;43.858;18.424;2024-01-30T02:03:45;97389.66;;;-2.74;70.81
84511;BME280;74730;43.858;18.424;2024-01-30T02:06:12;97384.78;;;-2.79;71.08
84511;BME280;74730;43.858;18.424;2024-01-30T02:08:38;97374.66;;;-2.79;70.79
84511;BME280;74730;43.858;18.424;2024-01-30T02:11:03;97384.84;;;-2.80;71.14
84511;BME280;74730;43.858;18.424;2024-01-30T02:13:29;97379.06;;;-2.84;71.26
84511;BME280;74730;43.858;18.424;2024-01-30T02:15:55;97381.59;;;-2.84;70.79
84511;BME280;74730;43.858;18.424;2024-01-30T02:18:20;97387.69;;;-2.88;71.01
84511;BME280;74730;43.858;18.424;2024-01-30T02:20:50;97375.81;;;-2.86;70.60
84511;BME280;74730;43.858;18.424;2024-01-30T02:23:19;97375.84;;;-2.87;70.63
84511;BME280;74730;43.858;18.424;2024-01-30T02:25:45;97379.34;;;-2.90;70.29
84511;BME280;74730;43.858;18.424;2024-01-30T02:28:11;97381.09;;;-2.92;70.87
84511;BME280;74730;43.858;18.424;2024-01-30T02:30:38;97377.81;;;-2.94;70.55
84511;BME280;74730;43.858;18.424;2024-01-30T02:33:04;97387.22;;;-2.97;70.56
84511;BME280;74730;43.858;18.424;2024-01-30T02:35:30;97380.66;;;-3.01;70.88
84511;BME280;74730;43.858;18.424;2024-01-30T02:37:55;97375.84;;;-3.07;70.62
84511;BME280;74730;43.858;18.424;2024-01-30T02:40:21;97381.84;;;-3.10;70.89
84511;BME280;74730;43.858;18.424;2024-01-30T02:42:46;97377.16;;;-3.19;71.05
84511;BME280;74730;43.858;18.424;2024-01-30T02:45:12;97376.28;;;-3.18;71.86
84511;BME280;74730;43.858;18.424;2024-01-30T02:47:38;97376.31;;;-3.20;71.63
84511;BME280;74730;43.858;18.424;2024-01-30T02:50:04;97385.78;;;-3.25;71.38
84511;BME280;74730;43.858;18.424;2024-01-30T02:52:30;97381.50;;;-3.23;72.03
84511;BME280;74730;43.858;18.424;2024-01-30T02:54:56;97390.09;;;-3.27;72.47
84511;BME280;74730;43.858;18.424;2024-01-30T02:57:21;97389.97;;;-3.24;72.61
84511;BME280;74730;43.858;18.424;2024-01-30T02:59:47;97387.56;;;-3.27;72.42
84511;BME280;74730;43.858;18.424;2024-01-30T03:02:12;97387.38;;;-3.22;71.54
84511;BME280;74730;43.858;18.424;2024-01-30T03:04:40;97389.97;;;-3.24;71.35
84511;BME280;74730;43.858;18.424;2024-01-30T03:07:06;97396.66;;;-3.23;71.30
84511;BME280;74730;43.858;18.424;2024-01-30T03:09:32;97389.97;;;-3.24;71.49
84511;BME280;74730;43.858;18.424;2024-01-30T03:11:57;97396.78;;;-3.26;71.67
84511;BME280;74730;43.858;18.424;2024-01-30T03:14:23;97394.31;;;-3.27;71.50
84511;BME280;74730;43.858;18.424;2024-01-30T03:16:48;97400.28;;;-3.30;71.42
84511;BME280;74730;43.858;18.424;2024-01-30T03:19:14;97399.59;;;-3.33;71.40
84511;BME280;74730;43.858;18.424;2024-01-30T03:21:39;97412.22;;;-3.33;71.45
84511;BME280;74730;43.858;18.424;2024-01-30T03:24:05;97404.78;;;-3.36;71.23
84511;BME280;74730;43.858;18.424;2024-01-30T03:26:30;97402.44;;;-3.41;71.04
84511;BME280;74730;43.858;18.424;2024-01-30T03:28:56;97405.94;;;-3.45;71.14
84511;BME280;74730;43.858;18.424;2024-01-30T03:31:21;97407.69;;;-3.47;71.20
84511;BME280;74730;43.858;18.424;2024-01-30T03:33:47;97410.47;;;-3.53;71.71
84511;BME280;74730;43.858;18.424;2024-01-30T03:36:14;97405.59;;;-3.58;72.03
84511;BME280;74730;43.858;18.424;2024-01-30T03:38:40;97406.47;;;-3.59;72.98
84511;BME280;74730;43.858;18.424;2024-01-30T03:41:08;97414.16;;;-3.62;72.64
84511;BME280;74730;43.858;18.424;2024-01-30T03:43:34;97404.88;;;-3.61;73.02
84511;BME280;74730;43.858;18.424;2024-01-30T03:46:01;97404.81;;;-3.60;73.25
84511;BME280;74730;43.858;18.424;2024-01-30T03:48:26;97403.94;;;-3.59;73.56
84511;BME280;74730;43.858;18.424;2024-01-30T03:50:52;97410.75;;;-3.61;73.30
84511;BME280;74730;43.858;18.424;2024-01-30T03:53:18;97418.41;;;-3.62;73.47
84511;BME280;74730;43.858;18.424;2024-01-30T03:55:43;97411.78;;;-3.66;73.92
84511;BME280;74730;43.858;18.424;2024-01-30T03:58:08;97415.09;;;-3.64;73.64
84511;BME280;74730;43.858;18.424;2024-01-30T04:00:34;97411.03;;;-3.68;73.36
84511;BME280;74730;43.858;18.424;2024-01-30T04:03:00;97416.09;;;-3.68;73.59
84511;BME280;74730;43.858;18.424;2024-01-30T04:05:26;97409.38;;;-3.69;74.63
84511;BME280;74730;43.858;18.424;2024-01-30T04:07:51;97404.38;;;-3.71;74.42
84511;BME280;74730;43.858;18.424;2024-01-30T04:10:17;97398.63;;;-3.74;73.48
84511;BME280;74730;43.858;18.424;2024-01-30T04:12:42;97407.81;;;-3.72;74.16
84511;BME280;74730;43.858;18.424;2024-01-30T04:15:08;97417.66;;;-3.66;73.85
84511;BME280;74730;43.858;18.424;2024-01-30T04:17:34;97418.44;;;-3.64;73.71
84511;BME280;74730;43.858;18.424;2024-01-30T04:19:59;97413.34;;;-3.62;73.00
84511;BME280;74730;43.858;18.424;2024-01-30T04:22:25;97410.69;;;-3.59;73.32
84511;BME280;74730;43.858;18.424;2024-01-30T04:24:50;97412.41;;;-3.60;72.41
84511;BME280;74730;43.858;18.424;2024-01-30T04:27:16;97418.44;;;-3.64;72.38
84511;BME280;74730;43.858;18.424;2024-01-30T04:29:41;97416.03;;;-3.67;72.04
84511;BME280;74730;43.858;18.424;2024-01-30T04:32:07;97427.00;;;-3.68;71.52
84511;BME280;74730;43.858;18.424;2024-01-30T04:34:33;97422.00;;;-3.69;71.69
84511;BME280;74730;43.858;18.424;2024-01-30T04:36:58;97424.66;;;-3.72;72.11
84511;BME280;74730;43.858;18.424;2024-01-30T04:39:24;97428.81;;;-3.71;72.91
84511;BME280;74730;43.858;18.424;2024-01-30T04:41:49;97425.56;;;-3.75;72.31
84511;BME280;74730;43.858;18.424;2024-01-30T04:44:15;97424.81;;;-3.77;71.67
84511;BME280;74730;43.858;18.424;2024-01-30T04:46:40;97424.75;;;-3.75;71.45
84511;BME280;74730;43.858;18.424;2024-01-30T04:49:06;97428.28;;;-3.79;71.82
84511;BME280;74730;43.858;18.424;2024-01-30T04:51:33;97427.56;;;-3.83;71.59
84511;BME280;74730;43.858;18.424;2024-01-30T04:53:59;97427.69;;;-3.86;71.74
84511;BME280;74730;43.858;18.424;2024-01-30T04:56:24;97426.91;;;-3.88;71.70
84511;BME280;74730;43.858;18.424;2024-01-30T04:58:50;97426.19;;;-3.91;71.85
84511;BME280;74730;43.858;18.424;2024-01-30T05:01:16;97427.09;;;-3.94;72.22
84511;BME280;74730;43.858;18.424;2024-01-30T05:03:42;97428.88;;;-3.96;71.96
84511;BME280;74730;43.858;18.424;2024-01-30T05:06:07;97432.41;;;-4.00;71.68
84511;BME280;74730;43.858;18.424;2024-01-30T05:08:33;97429.09;;;-4.02;72.14
84511;BME280;74730;43.858;18.424;2024-01-30T05:11:00;97435.66;;;-3.98;71.52
84511;BME280;74730;43.858;18.424;2024-01-30T05:13:27;97439.31;;;-4.05;72.14
84511;BME280;74730;43.858;18.424;2024-01-30T05:15:52;97446.75;;;-4.02;71.93
84511;BME280;74730;43.858;18.424;2024-01-30T05:18:18;97445.22;;;-4.06;72.76
84511;BME280;74730;43.858;18.424;2024-01-30T05:20:43;97444.47;;;-4.08;73.00
84511;BME280;74730;43.858;18.424;2024-01-30T05:23:09;97443.56;;;-4.07;72.36
84511;BME280;74730;43.858;18.424;2024-01-30T05:25:34;97446.09;;;-4.07;73.49
84511;BME280;74730;43.858;18.424;2024-01-30T05:28:00;97451.91;;;-4.05;74.16
84511;BME280;74730;43.858;18.424;2024-01-30T05:30:25;97452.75;;;-4.05;74.23
84511;BME280;74730;43.858;18.424;2024-01-30T05:32:51;97461.31;;;-4.09;73.88
84511;BME280;74730;43.858;18.424;2024-01-30T05:35:18;97452.09;;;-4.10;73.68
84511;BME280;74730;43.858;18.424;2024-01-30T05:37:43;97459.69;;;-4.11;73.61
84511;BME280;74730;43.858;18.424;2024-01-30T05:40:09;97455.78;;;-3.95;74.12
84511;BME280;74730;43.858;18.424;2024-01-30T05:42:35;97456.44;;;-3.90;74.27
84511;BME280;74730;43.858;18.424;2024-01-30T05:45:00;97451.41;;;-3.90;74.85
84511;BME280;74730;43.858;18.424;2024-01-30T05:47:26;97463.28;;;-3.93;74.39
84511;BME280;74730;43.858;18.424;2024-01-30T05:49:51;97459.94;;;-3.94;73.64
84511;BME280;74730;43.858;18.424;2024-01-30T05:52:17;97453.25;;;-3.95;73.31
84511;BME280;74730;43.858;18.424;2024-01-30T05:54:44;97455.81;;;-3.96;72.82
84511;BME280;74730;43.858;18.424;2024-01-30T05:57:09;97456.66;;;-3.96;72.41
84511;BME280;74730;43.858;18.424;2024-01-30T05:59:35;97459.34;;;-4.00;72.38
84511;BME280;74730;43.858;18.424;2024-01-30T06:02:01;97462.69;;;-4.00;72.50
84511;BME280;74730;43.858;18.424;2024-01-30T06:04:27;97460.81;;;-3.95;72.36
84511;BME280;74730;43.858;18.424;2024-01-30T06:06:52;97469.16;;;-3.93;72.11
84511;BME280;74730;43.858;18.424;2024-01-30T06:09:18;97458.19;;;-3.92;71.65
84511;BME280;74730;43.858;18.424;2024-01-30T06:11:43;97469.06;;;-3.90;71.29
84511;BME280;74730;43.858;18.424;2024-01-30T06:14:09;97462.25;;;-3.88;70.45
84511;BME280;74730;43.858;18.424;2024-01-30T06:16:34;97465.44;;;-3.83;71.11
84511;BME280;74730;43.858;18.424;2024-01-30T06:19:00;97470.44;;;-3.81;72.17
84511;BME280;74730;43.858;18.424;2024-01-30T06:21:25;97476.56;;;-3.88;71.59
84511;BME280;74730;43.858;18.424;2024-01-30T06:23:51;97482.41;;;-3.86;71.29
84511;BME280;74730;43.858;18.424;2024-01-30T06:26:17;97478.94;;;-3.84;71.05
84511;BME280;74730;43.858;18.424;2024-01-30T06:28:42;97480.69;;;-3.86;71.38
84511;BME280;74730;43.858;18.424;2024-01-30T06:31:08;97479.88;;;-3.86;71.02
84511;BME280;74730;43.858;18.424;2024-01-30T06:33:33;97485.75;;;-3.86;70.12
84511;BME280;74730;43.858;18.424;2024-01-30T06:35:59;97475.56;;;-3.84;70.16
84511;BME280;74730;43.858;18.424;2024-01-30T06:38:24;97475.56;;;-3.84;70.50
84511;BME280;74730;43.858;18.424;2024-01-30T06:40:50;97481.38;;;-3.81;70.34
84511;BME280;74730;43.858;18.424;2024-01-30T06:43:15;97485.63;;;-3.83;70.15
84511;BME280;74730;43.858;18.424;2024-01-30T06:45:41;97473.00;;;-3.83;69.70
84511;BME280;74730;43.858;18.424;2024-01-30T06:48:08;97475.50;;;-3.81;69.57
84511;BME280;74730;43.858;18.424;2024-01-30T06:50:33;97477.19;;;-3.82;70.53
84511;BME280;74730;43.858;18.424;2024-01-30T06:52:59;97471.09;;;-3.76;71.00
84511;BME280;74730;43.858;18.424;2024-01-30T06:55:25;97474.38;;;-3.74;70.49
84511;BME280;74730;43.858;18.424;2024-01-30T06:57:50;97468.47;;;-3.73;69.97
84511;BME280;74730;43.858;18.424;2024-01-30T07:00:16;97476.56;;;-3.65;69.91
84511;BME280;74730;43.858;18.424;2024-01-30T07:02:42;97484.47;;;-3.51;69.85
84511;BME280;74730;43.858;18.424;2024-01-30T07:05:07;97481.41;;;-3.36;72.47
84511;BME280;74730;43.858;18.424;2024-01-30T07:07:33;97478.22;;;-3.19;74.60
84511;BME280;74730;43.858;18.424;2024-01-30T07:09:58;97492.47;;;-2.95;75.86
84511;BME280;74730;43.858;18.424;2024-01-30T07:12:24;97481.16;;;-2.64;76.42
84511;BME280;74730;43.858;18.424;2024-01-30T07:14:51;97487.53;;;-2.34;77.02
84511;BME280;74730;43.858;18.424;2024-01-30T07:17:17;97487.31;;;-2.09;76.27
84511;BME280;74730;43.858;18.424;2024-01-30T07:19:43;97487.03;;;-1.83;73.49
84511;BME280;74730;43.858;18.424;2024-01-30T07:22:08;97482.56;;;-1.58;72.44
84511;BME280;74730;43.858;18.424;2024-01-30T07:24:34;97488.59;;;-1.42;70.14
84511;BME280;74730;43.858;18.424;2024-01-30T07:27:00;97484.28;;;-1.21;70.79
84511;BME280;74730;43.858;18.424;2024-01-30T07:29:25;97482.41;;;-0.99;69.84
84511;BME280;74730;43.858;18.424;2024-01-30T07:31:51;97481.81;;;-0.86;67.61
84511;BME280;74730;43.858;18.424;2024-01-30T07:34:17;97482.25;;;-0.96;65.10
84511;BME280;74730;43.858;18.424;2024-01-30T07:36:42;97478.22;;;-1.00;64.33
84511;BME280;74730;43.858;18.424;2024-01-30T07:39:08;97474.47;;;-1.10;64.76
84511;BME280;74730;43.858;18.424;2024-01-30T07:41:33;97482.16;;;-1.30;65.24
84511;BME280;74730;43.858;18.424;2024-01-30T07:44:00;97474.56;;;-1.30;65.28
84511;BME280;74730;43.858;18.424;2024-01-30T07:46:25;97477.25;;;-1.33;65.98
84511;BME280;74730;43.858;18.424;2024-01-30T07:48:51;97471.88;;;-1.27;64.97
84511;BME280;74730;43.858;18.424;2024-01-30T07:51:16;97475.72;;;-1.18;64.85
84511;BME280;74730;43.858;18.424;2024-01-30T07:53:42;97476.25;;;-1.12;64.28
84511;BME280;74730;43.858;18.424;2024-01-30T07:56:08;97472.44;;;-1.20;64.37
84511;BME280;74730;43.858;18.424;2024-01-30T07:58:33;97475.03;;;-1.22;64.55
84511;BME280;74730;43.858;18.424;2024-01-30T08:00:59;97465.56;;;-1.18;64.31
84511;BME280;74730;43.858;18.424;2024-01-30T08:03:25;97479.84;;;-1.16;64.34
84511;BME280;74730;43.858;18.424;2024-01-30T08:05:51;97478.03;;;-1.14;64.77
84511;BME280;74730;43.858;18.424;2024-01-30T08:08:17;97475.06;;;-1.05;64.71
84511;BME280;74730;43.858;18.424;2024-01-30T08:10:42;97479.91;;;-0.81;64.77
84511;BME280;74730;43.858;18.424;2024-01-30T08:13:08;97478.16;;;-0.62;63.52
84511;BME280;74730;43.858;18.424;2024-01-30T08:15:34;97473.50;;;-0.54;63.50
84511;BME280;74730;43.858;18.424;2024-01-30T08:18:00;97472.56;;;-0.34;64.03
84511;BME280;74730;43.858;18.424;2024-01-30T08:20:26;97470.09;;;0.14;63.48
84511;BME280;74730;43.858;18.424;2024-01-30T08:22:52;97468.81;;;0.71;60.51
84511;BME280;74730;43.858;18.424;2024-01-30T08:25:17;97470.22;;;1.38;60.21
84511;BME280;74730;43.858;18.424;2024-01-30T08:27:44;97464.19;;;1.99;58.66
84511;BME280;74730;43.858;18.424;2024-01-30T08:30:10;97467.13;;;2.49;56.45
84511;BME280;74730;43.858;18.424;2024-01-30T08:32:36;97461.88;;;2.93;54.72
84511;BME280;74730;43.858;18.424;2024-01-30T08:35:01;97459.09;;;3.37;54.06
84511;BME280;74730;43.858;18.424;2024-01-30T08:37:30;97462.22;;;3.68;52.96
84511;BME280;74730;43.858;18.424;2024-01-30T08:39:59;97457.56;;;3.87;52.71
84511;BME280;74730;43.858;18.424;2024-01-30T08:42:25;97459.72;;;4.06;51.56
84511;BME280;74730;43.858;18.424;2024-01-30T08:44:51;97466.56;;;4.18;51.04
84511;BME280;74730;43.858;18.424;2024-01-30T08:47:18;97462.78;;;4.23;49.75
84511;BME280;74730;43.858;18.424;2024-01-30T08:49:44;97465.13;;;4.52;48.56
84511;BME280;74730;43.858;18.424;2024-01-30T08:52:10;97465.00;;;4.66;47.38
84511;BME280;74730;43.858;18.424;2024-01-30T08:54:36;97465.16;;;4.88;47.14
84511;BME280;74730;43.858;18.424;2024-01-30T08:57:02;97469.91;;;5.05;46.63
84511;BME280;74730;43.858;18.424;2024-01-30T08:59:27;97462.03;;;5.08;46.45
84511;BME280;74730;43.858;18.424;2024-01-30T09:01:53;97465.28;;;5.10;46.41
84511;BME280;74730;43.858;18.424;2024-01-30T09:04:21;97458.97;;;5.27;46.44
84511;BME280;74730;43.858;18.424;2024-01-30T09:06:47;97461.91;;;5.33;46.48
84511;BME280;74730;43.858;18.424;2024-01-30T09:09:13;97465.22;;;5.23;46.88
84511;BME280;74730;43.858;18.424;2024-01-30T09:11:40;97459.31;;;5.22;46.24
84511;BME280;74730;43.858;18.424;2024-01-30T09:14:05;97469.81;;;5.07;48.34
84511;BME280;74730;43.858;18.424;2024-01-30T09:16:31;97472.13;;;5.10;47.91
84511;BME280;74730;43.858;18.424;2024-01-30T09:18:57;97467.00;;;5.22;47.28
84511;BME280;74730;43.858;18.424;2024-01-30T09:21:22;97464.88;;;5.27;46.77
84511;BME280;74730;43.858;18.424;2024-01-30T09:23:48;97467.03;;;5.33;46.80
84511;BME280;74730;43.858;18.424;2024-01-30T09:26:14;97469.19;;;5.51;47.71
84511;BME280;74730;43.858;18.424;2024-01-30T09:28:40;97464.56;;;5.56;48.46
84511;BME280;74730;43.858;18.424;2024-01-30T09:31:11;97469.16;;;5.74;47.35
84511;BME280;74730;43.858;18.424;2024-01-30T09:33:36;97462.44;;;5.85;46.28
84511;BME280;74730;43.858;18.424;2024-01-30T09:36:02;97460.97;;;5.93;45.59
84511;BME280;74730;43.858;18.424;2024-01-30T09:38:28;97454.44;;;5.89;46.89
84511;BME280;74730;43.858;18.424;2024-01-30T09:40:55;97459.94;;;6.07;46.68
84511;BME280;74730;43.858;18.424;2024-01-30T09:43:24;97454.59;;;6.10;45.06
84511;BME280;74730;43.858;18.424;2024-01-30T09:45:53;97453.56;;;6.12;45.77
84511;BME280;74730;43.858;18.424;2024-01-30T09:48:19;97445.22;;;5.87;44.54
84511;BME280;74730;43.858;18.424;2024-01-30T09:50:46;97439.81;;;5.78;45.25
84511;BME280;74730;43.858;18.424;2024-01-30T09:53:13;97445.78;;;5.55;45.17
84511;BME280;74730;43.858;18.424;2024-01-30T09:55:42;97440.25;;;5.38;44.45
84511;BME280;74730;43.858;18.424;2024-01-30T09:58:08;97435.84;;;5.16;46.25
84511;BME280;74730;43.858;18.424;2024-01-30T10:00:33;97436.66;;;5.16;46.01
84511;BME280;74730;43.858;18.424;2024-01-30T10:02:59;97429.09;;;5.15;46.26
84511;BME280;74730;43.858;18.424;2024-01-30T10:05:26;97434.59;;;5.21;46.71
84511;BME280;74730;43.858;18.424;2024-01-30T10:07:54;97425.69;;;5.14;45.92
84511;BME280;74730;43.858;18.424;2024-01-30T10:10:22;97424.13;;;5.01;47.19
84511;BME280;74730;43.858;18.424;2024-01-30T10:12:49;97419.56;;;4.93;47.67
84511;BME280;74730;43.858;18.424;2024-01-30T10:15:14;97421.53;;;4.77;47.45
84511;BME280;74730;43.858;18.424;2024-01-30T10:17:40;97416.09;;;4.58;47.70
84511;BME280;74730;43.858;18.424;2024-01-30T10:20:08;97417.22;;;4.54;48.58
84511;BME280;74730;43.858;18.424;2024-01-30T10:22:34;97415.44;;;4.67;49.58
84511;BME280;74730;43.858;18.424;2024-01-30T10:25:00;97412.25;;;4.76;48.23
84511;BME280;74730;43.858;18.424;2024-01-30T10:27:26;97397.66;;;4.89;47.43
84511;BME280;74730;43.858;18.424;2024-01-30T10:29:52;97396.09;;;4.99;48.45
84511;BME280;74730;43.858;18.424;2024-01-30T10:32:19;97396.78;;;5.01;47.71
84511;BME280;74730;43.858;18.424;2024-01-30T10:34:45;97396.41;;;4.95;46.92
84511;BME280;74730;43.858;18.424;2024-01-30T10:37:11;97388.72;;;4.95;47.08
84511;BME280;74730;43.858;18.424;2024-01-30T10:39:41;97378.00;;;4.89;47.03
84511;BME280;74730;43.858;18.424;2024-01-30T10:42:16;97380.75;;;4.63;47.57
84511;BME280;74730;43.858;18.424;2024-01-30T10:45:11;97377.19;;;4.53;47.70
84511;BME280;74730;43.858;18.424;2024-01-30T10:47:40;97362.69;;;4.40;48.53
84511;BME280;74730;43.858;18.424;2024-01-30T10:50:08;97365.22;;;4.40;48.18
84511;BME280;74730;43.858;18.424;2024-01-30T10:52:34;97358.38;;;4.41;48.46
84511;BME280;74730;43.858;18.424;2024-01-30T10:55:00;97362.91;;;4.37;48.40
84511;BME280;74730;43.858;18.424;2024-01-30T10:57:26;97350.75;;;4.28;47.79
84511;BME280;74730;43.858;18.424;2024-01-30T10:59:56;97356.06;;;4.25;49.01
84511;BME280;74730;43.858;18.424;2024-01-30T11:02:23;97348.00;;;4.19;48.89
84511;BME280;74730;43.858;18.424;2024-01-30T11:04:49;97344.94;;;4.14;49.31
84511;BME280;74730;43.858;18.424;2024-01-30T11:07:23;97337.16;;;4.15;50.06
84511;BME280;74730;43.858;18.424;2024-01-30T11:09:53;97337.16;;;4.15;49.39
84511;BME280;74730;43.858;18.424;2024-01-30T11:12:25;97331.22;;;4.15;49.11
84511;BME280;74730;43.858;18.424;2024-01-30T11:15:14;97334.06;;;4.23;48.38
84511;BME280;74730;43.858;18.424;2024-01-30T11:20:10;97330.78;;;4.33;49.69
84511;BME280;74730;43.858;18.424;2024-01-30T11:22:36;97325.63;;;4.46;48.99
84511;BME280;74730;43.858;18.424;2024-01-30T11:25:01;97318.44;;;4.51;50.33
84511;BME280;74730;43.858;18.424;2024-01-30T11:27:31;97324.13;;;4.67;52.86
84511;BME280;74730;43.858;18.424;2024-01-30T11:30:04;97318.78;;;4.70;50.12
84511;BME280;74730;43.858;18.424;2024-01-30T11:32:30;97315.31;;;4.71;49.18
84511;BME280;74730;43.858;18.424;2024-01-30T11:34:56;97313.31;;;4.75;53.08
84511;BME280;74730;43.858;18.424;2024-01-30T11:37:25;97310.34;;;4.81;48.97
84511;BME280;74730;43.858;18.424;2024-01-30T11:39:53;97303.25;;;4.84;48.48
84511;BME280;74730;43.858;18.424;2024-01-30T11:42:19;97297.22;;;4.85;48.74
84511;BME280;74730;43.858;18.424;2024-01-30T11:44:48;97292.88;;;4.86;48.00
84511;BME280;74730;43.858;18.424;2024-01-30T11:47:14;97292.94;;;4.97;49.10
84511;BME280;74730;43.858;18.424;2024-01-30T11:49:41;97292.03;;;5.09;49.07
84511;BME280;74730;43.858;18.424;2024-01-30T11:52:07;97291.09;;;5.10;47.55
84511;BME280;74730;43.858;18.424;2024-01-30T11:54:33;97293.44;;;5.13;48.17
84511;BME280;74730;43.858;18.424;2024-01-30T11:56:59;97289.75;;;5.17;47.59
84511;BME280;74730;43.858;18.424;2024-01-30T11:59:25;97276.59;;;5.22;46.77
84511;BME280;74730;43.858;18.424;2024-01-30T12:01:51;97284.63;;;5.28;47.90
84511;BME280;74730;43.858;18.424;2024-01-30T12:04:17;97269.63;;;5.46;47.11
84511;BME280;74730;43.858;18.424;2024-01-30T12:06:43;97279.06;;;5.57;48.05
84511;BME280;74730;43.858;18.424;2024-01-30T12:09:09;97267.56;;;5.62;47.06
84511;BME280;74730;43.858;18.424;2024-01-30T12:11:47;97264.63;;;5.67;46.75
84511;BME280;74730;43.858;18.424;2024-01-30T12:14:13;97256.25;;;5.65;46.80
84511;BME280;74730;43.858;18.424;2024-01-30T12:16:39;97261.59;;;5.73;45.96
84511;BME280;74730;43.858;18.424;2024-01-30T12:19:07;97252.75;;;5.77;45.50
84511;BME280;74730;43.858;18.424;2024-01-30T12:21:33;97257.53;;;5.82;46.13
84511;BME280;74730;43.858;18.424;2024-01-30T12:24:00;97248.78;;;5.84;46.44
84511;BME280;74730;43.858;18.424;2024-01-30T12:26:26;97243.91;;;5.92;45.85
84511;BME280;74730;43.858;18.424;2024-01-30T12:28:54;97242.97;;;5.93;45.78
84511;BME280;74730;43.858;18.424;2024-01-30T12:31:28;97243.31;;;6.00;45.43
84511;BME280;74730;43.858;18.424;2024-01-30T12:33:54;97244.56;;;6.05;45.93
84511;BME280;74730;43.858;18.424;2024-01-30T12:36:23;97238.16;;;6.11;45.44
84511;BME280;74730;43.858;18.424;2024-01-30T12:38:49;97234.19;;;6.18;44.68
84511;BME280;74730;43.858;18.424;2024-01-30T12:41:15;97230.44;;;6.22;45.56
84511;BME280;74730;43.858;18.424;2024-01-30T12:43:42;97237.78;;;6.27;44.98
84511;BME280;74730;43.858;18.424;2024-01-30T12:46:07;97224.59;;;6.31;44.54
84511;BME280;74730;43.858;18.424;2024-01-30T12:48:34;97223.66;;;6.32;44.25
84511;BME280;74730;43.858;18.424;2024-01-30T12:50:59;97227.84;;;6.33;44.48